sensor_id;sensor_type;location;lat;lon;timestamp;pressure;altitude;pressure_sealevel;temperature;humidity
34081;BME280;20358;50.272;19.026;2023-01-28T00:02:08;98677.31;;;-1.73;52.17
34081;BME280;20358;50.272;19.026;2023-01-28T00:05:20;98664.38;;;-1.73;51.63
34081;BME280;20358;50.272;19.026;2023-01-28T00:08:26;98666.03;;;-1.69;51.44
34081;BME280;20358;50.272;19.026;2023-01-28T00:11:32;98675.75;;;-1.79;51.42
34081;BME280;20358;50.272;19.026;2023-01-28T00:14:38;98666.34;;;-1.86;51.69
34081;BME280;20358;50.272;19.026;2023-01-28T00:17:43;98671.47;;;-1.81;51.09
34081;BME280;20358;50.272;19.026;2023-01-28T00:21:01;98684.53;;;-1.87;51.66
34081;BME280;20358;50.272;19.026;2023-01-28T00:24:07;98673.34;;;-1.89;51.98
34081;BME280;20358;50.272;19.026;2023-01-28T00:27:14;98674.13;;;-1.86;51.68
34081;BME280;20358;50.272;19.026;2023-01-28T00:30:19;98678.34;;;-1.80;51.37
34081;BME280;20358;50.272;19.026;2023-01-28T00:33:26;98679.13;;;-1.77;51.76
34081;BME280;20358;50.272;19.026;2023-01-28T00:36:34;98680.66;;;-1.68;50.99
34081;BME280;20358;50.272;19.026;2023-01-28T00:39:42;98684.38;;;-1.80;51.05
34081;BME280;20358;50.272;19.026;2023-01-28T00:42:47;98683.72;;;-1.89;51.47
34081;BME280;20358;50.272;19.026;2023-01-28T00:45:55;98681.19;;;-1.94;51.59
34081;BME280;20358;50.272;19.026;2023-01-28T00:49:01;98671.84;;;-2.01;51.70
34081;BME280;20358;50.272;19.026;2023-01-28T00:52:12;98677.22;;;-2.10;51.17
34081;BME280;20358;50.272;19.026;2023-01-28T00:55:17;98677.41;;;-2.21;52.29
34081;BME280;20358;50.272;19.026;2023-01-28T00:58:24;98687.03;;;-2.30;52.55
34081;BME280;20358;50.272;19.026;2023-01-28T01:01:29;98688.66;;;-2.23;52.29
34081;BME280;20358;50.272;19.026;2023-01-28T01:04:36;98683.38;;;-2.19;52.12
34081;BME280;20358;50.272;19.026;2023-01-28T01:07:45;98682.63;;;-2.24;52.29
34081;BME280;20358;50.272;19.026;2023-01-28T01:10:51;98679.25;;;-2.29;52.63
34081;BME280;20358;50.272;19.026;2023-01-28T01:13:59;98676.78;;;-2.33;53.02
34081;BME280;20358;50.272;19.026;2023-01-28T01:17:07;98687.91;;;-2.30;52.21
34081;BME280;20358;50.272;19.026;2023-01-28T01:20:16;98683.72;;;-2.37;53.08
34081;BME280;20358;50.272;19.026;2023-01-28T01:23:30;98693.06;;;-2.30;53.09
34081;BME280;20358;50.272;19.026;2023-01-28T01:26:36;98698.28;;;-2.33;53.23
34081;BME280;20358;50.272;19.026;2023-01-28T01:29:42;98703.41;;;-2.28;52.82
34081;BME280;20358;50.272;19.026;2023-01-28T01:32:47;98700.72;;;-2.24;52.58
34081;BME280;20358;50.272;19.026;2023-01-28T01:35:54;98705.13;;;-2.29;52.43
34081;BME280;20358;50.272;19.026;2023-01-28T01:39:03;98708.84;;;-2.45;52.92
34081;BME280;20358;50.272;19.026;2023-01-28T01:42:14;98708.06;;;-2.50;52.41
34081;BME280;20358;50.272;19.026;2023-01-28T01:45:20;98668.88;;;-2.76;53.53
34081;BME280;20358;50.272;19.026;2023-01-28T01:48:31;98701.25;;;-2.54;53.34
34081;BME280;20358;50.272;19.026;2023-01-28T01:51:40;98705.53;;;-2.53;52.41
34081;BME280;20358;50.272;19.026;2023-01-28T01:54:56;98711.59;;;-2.54;52.39
34081;BME280;20358;50.272;19.026;2023-01-28T01:58:09;98706.41;;;-2.53;53.44
34081;BME280;20358;50.272;19.026;2023-01-28T02:01:21;98708.84;;;-2.45;53.25
34081;BME280;20358;50.272;19.026;2023-01-28T02:04:36;98718.28;;;-2.42;53.17
34081;BME280;20358;50.272;19.026;2023-01-28T02:07:55;98711.34;;;-2.40;52.12
34081;BME280;20358;50.272;19.026;2023-01-28T02:11:28;98708.72;;;-2.36;52.21
34081;BME280;20358;50.272;19.026;2023-01-28T02:14:42;98692.44;;;-2.42;52.59
34081;BME280;20358;50.272;19.026;2023-01-28T02:17:52;98700.94;;;-2.36;52.10
34081;BME280;20358;50.272;19.026;2023-01-28T02:25:39;98701.06;;;-2.42;53.03
34081;BME280;20358;50.272;19.026;2023-01-28T02:29:13;98704.44;;;-2.40;52.25
34081;BME280;20358;50.272;19.026;2023-01-28T02:32:33;98703.78;;;-2.51;52.50
34081;BME280;20358;50.272;19.026;2023-01-28T02:35:49;98707.22;;;-2.49;53.39
34081;BME280;20358;50.272;19.026;2023-01-28T02:39:04;98708.84;;;-2.45;53.28
34081;BME280;20358;50.272;19.026;2023-01-28T02:42:24;98712.22;;;-2.40;52.78
34081;BME280;20358;50.272;19.026;2023-01-28T02:45:36;98705.31;;;-2.41;53.09
34081;BME280;20358;50.272;19.026;2023-01-28T02:48:56;98705.31;;;-2.39;52.81
34081;BME280;20358;50.272;19.026;2023-01-28T02:52:14;98713.88;;;-2.36;53.11
34081;BME280;20358;50.272;19.026;2023-01-28T02:56:03;98718.94;;;-2.30;52.52
34081;BME280;20358;50.272;19.026;2023-01-28T02:59:25;98715.47;;;-2.29;53.06
34081;BME280;20358;50.272;19.026;2023-01-28T03:02:53;98712.84;;;-2.26;53.52
34081;BME280;20358;50.272;19.026;2023-01-28T03:06:09;98710.25;;;-2.26;53.04
34081;BME280;20358;50.272;19.026;2023-01-28T03:09:22;98712.13;;;-2.34;52.80
34081;BME280;20358;50.272;19.026;2023-01-28T03:12:30;98714.72;;;-2.35;53.46
34081;BME280;20358;50.272;19.026;2023-01-28T03:15:55;98715.47;;;-2.29;52.82
34081;BME280;20358;50.272;19.026;2023-01-28T03:19:21;98713.88;;;-2.36;53.63
34081;BME280;20358;50.272;19.026;2023-01-28T03:22:51;98715.63;;;-2.38;54.02
34081;BME280;20358;50.272;19.026;2023-01-28T03:26:20;98720.06;;;-2.44;54.02
34081;BME280;20358;50.272;19.026;2023-01-28T03:29:47;98714.97;;;-2.50;53.36
34081;BME280;20358;50.272;19.026;2023-01-28T03:33:12;98718.56;;;-2.59;53.63
34081;BME280;20358;50.272;19.026;2023-01-28T03:36:39;98715.31;;;-2.72;54.65
34081;BME280;20358;50.272;19.026;2023-01-28T03:40:08;98723.16;;;-2.76;53.76
34081;BME280;20358;50.272;19.026;2023-01-28T03:43:18;98717.22;;;-2.83;54.98
34081;BME280;20358;50.272;19.026;2023-01-28T03:46:24;98719.81;;;-2.84;54.23
34081;BME280;20358;50.272;19.026;2023-01-28T03:49:31;98724.13;;;-2.85;54.68
34081;BME280;20358;50.272;19.026;2023-01-28T03:52:39;98721.66;;;-2.91;54.41
34081;BME280;20358;50.272;19.026;2023-01-28T03:55:57;98713.69;;;-2.77;54.81
34081;BME280;20358;50.272;19.026;2023-01-28T03:59:03;98716.16;;;-2.71;53.70
34081;BME280;20358;50.272;19.026;2023-01-28T04:02:11;98710.88;;;-2.62;54.22
34081;BME280;20358;50.272;19.026;2023-01-28T04:05:20;98726.19;;;-2.50;53.50
34081;BME280;20358;50.272;19.026;2023-01-28T04:08:30;98714.13;;;-2.51;53.61
34081;BME280;20358;50.272;19.026;2023-01-28T04:11:54;98726.28;;;-2.56;53.18
34081;BME280;20358;50.272;19.026;2023-01-28T04:15:10;98718.63;;;-2.62;53.00
34081;BME280;20358;50.272;19.026;2023-01-28T04:18:20;98719.44;;;-2.60;54.49
34081;BME280;20358;50.272;19.026;2023-01-28T04:21:31;98729.22;;;-2.79;53.11
34081;BME280;20358;50.272;19.026;2023-01-28T04:24:41;98714.56;;;-2.78;54.45
34081;BME280;20358;50.272;19.026;2023-01-28T04:27:47;98711.09;;;-2.76;53.33
34081;BME280;20358;50.272;19.026;2023-01-28T04:30:59;98713.69;;;-2.77;53.67
34081;BME280;20358;50.272;19.026;2023-01-28T04:34:17;98725.81;;;-2.81;53.21
34081;BME280;20358;50.272;19.026;2023-01-28T04:37:36;98724.03;;;-2.79;53.31
34081;BME280;20358;50.272;19.026;2023-01-28T04:41:34;98726.50;;;-2.71;54.00
34081;BME280;20358;50.272;19.026;2023-01-28T04:44:51;98722.25;;;-2.72;53.17
34081;BME280;20358;50.272;19.026;2023-01-28T04:48:17;98723.16;;;-2.76;54.44
34081;BME280;20358;50.272;19.026;2023-01-28T04:51:38;98717.91;;;-2.70;53.68
34081;BME280;20358;50.272;19.026;2023-01-28T04:54:47;98720.59;;;-2.79;53.64
34081;BME280;20358;50.272;19.026;2023-01-28T04:57:55;98722.41;;;-2.84;52.95
34081;BME280;20358;50.272;19.026;2023-01-28T05:01:02;98728.41;;;-2.82;53.89
34081;BME280;20358;50.272;19.026;2023-01-28T05:04:08;98731.03;;;-2.84;53.32
34081;BME280;20358;50.272;19.026;2023-01-28T05:07:15;98727.47;;;-2.77;53.77
34081;BME280;20358;50.272;19.026;2023-01-28T05:10:21;98726.59;;;-2.77;53.26
34081;BME280;20358;50.272;19.026;2023-01-28T05:13:32;98725.72;;;-2.76;54.05
34081;BME280;20358;50.272;19.026;2023-01-28T05:16:38;98734.22;;;-2.68;53.74
34081;BME280;20358;50.272;19.026;2023-01-28T05:19:46;98731.47;;;-2.59;53.23
34081;BME280;20358;50.272;19.026;2023-01-28T05:22:55;98742.69;;;-2.57;53.64
34081;BME280;20358;50.272;19.026;2023-01-28T05:26:11;98755.50;;;-2.51;53.06
34081;BME280;20358;50.272;19.026;2023-01-28T05:29:21;98749.53;;;-2.56;53.08
34081;BME280;20358;50.272;19.026;2023-01-28T05:32:28;98756.47;;;-2.58;53.29
34081;BME280;20358;50.272;19.026;2023-01-28T05:35:33;98750.44;;;-2.57;53.44
34081;BME280;20358;50.272;19.026;2023-01-28T05:38:40;98754.94;;;-2.71;54.00
34081;BME280;20358;50.272;19.026;2023-01-28T05:41:46;98759.25;;;-2.70;53.73
34081;BME280;20358;50.272;19.026;2023-01-28T05:44:55;98764.31;;;-2.64;53.24
34081;BME280;20358;50.272;19.026;2023-01-28T05:48:42;98766.72;;;-2.52;52.97
34081;BME280;20358;50.272;19.026;2023-01-28T05:52:06;98772.53;;;-2.38;53.34
34081;BME280;20358;50.272;19.026;2023-01-28T05:55:12;98777.69;;;-2.38;53.23
34081;BME280;20358;50.272;19.026;2023-01-28T05:58:21;98762.22;;;-2.41;53.34
34081;BME280;20358;50.272;19.026;2023-01-28T06:01:31;98782.78;;;-2.32;53.23
34081;BME280;20358;50.272;19.026;2023-01-28T06:04:38;98793.91;;;-2.27;53.25
34081;BME280;20358;50.272;19.026;2023-01-28T06:07:45;98801.75;;;-2.33;52.58
34081;BME280;20358;50.272;19.026;2023-01-28T06:10:52;98801.72;;;-2.30;53.36
34081;BME280;20358;50.272;19.026;2023-01-28T06:13:59;98805.25;;;-2.34;53.35
34081;BME280;20358;50.272;19.026;2023-01-28T06:18:01;98801.75;;;-2.33;53.04
34081;BME280;20358;50.272;19.026;2023-01-28T06:21:08;98806.06;;;-2.32;53.22
34081;BME280;20358;50.272;19.026;2023-01-28T06:24:14;98806.88;;;-2.30;53.35
34081;BME280;20358;50.272;19.026;2023-01-28T06:27:20;98818.06;;;-2.26;52.98
34081;BME280;20358;50.272;19.026;2023-01-28T06:30:27;98813.72;;;-2.26;52.95
34081;BME280;20358;50.272;19.026;2023-01-28T06:33:35;98828.34;;;-2.25;52.81
34081;BME280;20358;50.272;19.026;2023-01-28T06:36:42;98821.50;;;-2.27;53.37
34081;BME280;20358;50.272;19.026;2023-01-28T06:39:47;98815.44;;;-2.25;53.09
34081;BME280;20358;50.272;19.026;2023-01-28T06:42:53;98815.53;;;-2.31;52.94
34081;BME280;20358;50.272;19.026;2023-01-28T06:45:59;98818.25;;;-2.40;53.70
34081;BME280;20358;50.272;19.026;2023-01-28T06:49:08;98827.69;;;-2.36;53.02
34081;BME280;20358;50.272;19.026;2023-01-28T06:52:14;98831.94;;;-2.32;53.19
34081;BME280;20358;50.272;19.026;2023-01-28T06:55:20;98827.56;;;-2.30;52.90
34081;BME280;20358;50.272;19.026;2023-01-28T06:58:25;98829.34;;;-2.32;53.65
34081;BME280;20358;50.272;19.026;2023-01-28T07:01:32;98841.50;;;-2.37;53.16
34081;BME280;20358;50.272;19.026;2023-01-28T07:04:40;98831.16;;;-2.37;53.15
34081;BME280;20358;50.272;19.026;2023-01-28T07:07:46;98841.59;;;-2.46;53.91
34081;BME280;20358;50.272;19.026;2023-01-28T07:10:52;98846.88;;;-2.52;53.14
34081;BME280;20358;50.272;19.026;2023-01-28T07:13:58;98851.25;;;-2.56;54.17
34081;BME280;20358;50.272;19.026;2023-01-28T07:17:04;98850.41;;;-2.59;53.86
34081;BME280;20358;50.272;19.026;2023-01-28T07:20:14;98851.28;;;-2.59;53.70
34081;BME280;20358;50.272;19.026;2023-01-28T07:23:20;98849.47;;;-2.54;53.62
34081;BME280;20358;50.272;19.026;2023-01-28T07:26:30;98846.06;;;-2.54;54.12
34081;BME280;20358;50.272;19.026;2023-01-28T07:29:36;98859.00;;;-2.54;53.65
34081;BME280;20358;50.272;19.026;2023-01-28T07:32:43;98869.25;;;-2.51;53.69
34081;BME280;20358;50.272;19.026;2023-01-28T07:35:52;98870.16;;;-2.52;54.19
34081;BME280;20358;50.272;19.026;2023-01-28T07:38:58;98866.75;;;-2.56;53.95
34081;BME280;20358;50.272;19.026;2023-01-28T07:42:03;98869.50;;;-2.69;54.46
34081;BME280;20358;50.272;19.026;2023-01-28T07:45:20;98868.72;;;-2.74;53.63
34081;BME280;20358;50.272;19.026;2023-01-28T07:48:27;98866.94;;;-2.69;54.37
34081;BME280;20358;50.272;19.026;2023-01-28T07:51:36;98871.16;;;-2.62;53.30
34081;BME280;20358;50.272;19.026;2023-01-28T07:54:41;98869.34;;;-2.56;53.77
34081;BME280;20358;50.272;19.026;2023-01-28T07:57:49;98874.38;;;-2.45;53.70
34081;BME280;20358;50.272;19.026;2023-01-28T08:00:56;98872.78;;;-2.55;53.41
34081;BME280;20358;50.272;19.026;2023-01-28T08:04:03;98877.97;;;-2.57;53.85
34081;BME280;20358;50.272;19.026;2023-01-28T08:07:12;98881.41;;;-2.56;53.86
34081;BME280;20358;50.272;19.026;2023-01-28T08:10:20;98881.34;;;-2.50;53.27
34081;BME280;20358;50.272;19.026;2023-01-28T08:13:26;98875.28;;;-2.49;53.46
34081;BME280;20358;50.272;19.026;2023-01-28T08:16:32;98876.19;;;-2.51;53.69
34081;BME280;20358;50.272;19.026;2023-01-28T08:19:38;98894.19;;;-2.45;53.74
34081;BME280;20358;50.272;19.026;2023-01-28T08:22:47;98889.03;;;-2.45;53.36
34081;BME280;20358;50.272;19.026;2023-01-28T08:25:53;98892.28;;;-2.33;52.70
34081;BME280;20358;50.272;19.026;2023-01-28T08:28:59;98893.94;;;-2.27;52.68
34081;BME280;20358;50.272;19.026;2023-01-28T08:32:05;98898.13;;;-2.19;53.04
34081;BME280;20358;50.272;19.026;2023-01-28T08:35:11;98898.88;;;-2.11;52.68
34081;BME280;20358;50.272;19.026;2023-01-28T08:38:19;98898.78;;;-2.06;52.47
34081;BME280;20358;50.272;19.026;2023-01-28T08:41:26;98893.69;;;-2.12;52.45
34081;BME280;20358;50.272;19.026;2023-01-28T08:44:31;98900.63;;;-2.13;52.18
34081;BME280;20358;50.272;19.026;2023-01-28T08:47:46;98896.28;;;-2.11;52.31
34081;BME280;20358;50.272;19.026;2023-01-28T08:50:52;98894.56;;;-2.10;51.91
34081;BME280;20358;50.272;19.026;2023-01-28T08:54:06;98899.66;;;-2.06;52.57
34081;BME280;20358;50.272;19.026;2023-01-28T08:57:11;98901.34;;;-2.05;51.94
34081;BME280;20358;50.272;19.026;2023-01-28T09:00:19;98901.34;;;-2.03;52.22
34081;BME280;20358;50.272;19.026;2023-01-28T09:03:25;98898.75;;;-2.05;51.86
34081;BME280;20358;50.272;19.026;2023-01-28T09:06:37;98903.94;;;-2.03;52.18
34081;BME280;20358;50.272;19.026;2023-01-28T09:09:51;98904.78;;;-2.03;51.90
34081;BME280;20358;50.272;19.026;2023-01-28T09:12:57;98901.22;;;-1.96;51.85
34081;BME280;20358;50.272;19.026;2023-01-28T09:16:04;98911.53;;;-1.93;51.75
34081;BME280;20358;50.272;19.026;2023-01-28T09:19:11;98906.31;;;-1.89;51.45
34081;BME280;20358;50.272;19.026;2023-01-28T09:22:17;98907.06;;;-1.83;51.37
34081;BME280;20358;50.272;19.026;2023-01-28T09:25:27;98904.38;;;-1.78;51.35
34081;BME280;20358;50.272;19.026;2023-01-28T09:28:32;98917.31;;;-1.78;51.35
34081;BME280;20358;50.272;19.026;2023-01-28T09:31:40;98903.69;;;-1.88;50.95
34081;BME280;20358;50.272;19.026;2023-01-28T09:34:49;98932.97;;;-1.86;50.87
34081;BME280;20358;50.272;19.026;2023-01-28T09:37:56;98930.50;;;-1.94;51.24
34081;BME280;20358;50.272;19.026;2023-01-28T09:41:22;98932.19;;;-1.89;51.81
34081;BME280;20358;50.272;19.026;2023-01-28T09:44:50;98923.56;;;-1.92;51.82
34081;BME280;20358;50.272;19.026;2023-01-28T09:48:13;98926.97;;;-1.88;51.49
34081;BME280;20358;50.272;19.026;2023-01-28T09:51:31;98914.91;;;-1.87;51.18
34081;BME280;20358;50.272;19.026;2023-01-28T09:54:44;98915.69;;;-1.82;51.21
34081;BME280;20358;50.272;19.026;2023-01-28T09:57:56;98913.22;;;-1.90;51.33
34081;BME280;20358;50.272;19.026;2023-01-28T10:01:19;98909.63;;;-1.81;51.34
34081;BME280;20358;50.272;19.026;2023-01-28T10:04:53;98912.94;;;-1.73;51.26
34081;BME280;20358;50.272;19.026;2023-01-28T10:08:17;98913.13;;;-1.84;51.43
34081;BME280;20358;50.272;19.026;2023-01-28T10:11:45;98872.75;;;-1.96;51.70
34081;BME280;20358;50.272;19.026;2023-01-28T10:19:00;98899.16;;;-1.74;51.00
34081;BME280;20358;50.272;19.026;2023-01-28T10:22:16;98901.75;;;-1.74;51.08
34081;BME280;20358;50.272;19.026;2023-01-28T10:25:30;98906.94;;;-1.74;51.29
34081;BME280;20358;50.272;19.026;2023-01-28T10:28:38;98913.22;;;-1.92;51.71
34081;BME280;20358;50.272;19.026;2023-01-28T10:31:51;98913.28;;;-1.95;51.44
34081;BME280;20358;50.272;19.026;2023-01-28T10:34:59;98909.75;;;-1.91;51.73
34081;BME280;20358;50.272;19.026;2023-01-28T10:38:09;98901.78;;;-1.78;51.65
34081;BME280;20358;50.272;19.026;2023-01-28T10:41:21;98906.66;;;-1.60;51.72
34081;BME280;20358;50.272;19.026;2023-01-28T10:44:33;98907.31;;;-1.46;50.91
34081;BME280;20358;50.272;19.026;2023-01-28T10:47:49;98899.97;;;-1.23;51.02
34081;BME280;20358;50.272;19.026;2023-01-28T10:51:04;98898.84;;;-1.10;49.86
34081;BME280;20358;50.272;19.026;2023-01-28T10:54:18;98892.81;;;-1.09;49.68
34081;BME280;20358;50.272;19.026;2023-01-28T10:57:27;98908.94;;;-0.95;49.77
34081;BME280;20358;50.272;19.026;2023-01-28T11:00:36;98911.34;;;-0.86;49.57
34081;BME280;20358;50.272;19.026;2023-01-28T11:03:55;98908.81;;;-0.89;49.40
34081;BME280;20358;50.272;19.026;2023-01-28T11:07:04;98909.75;;;-0.93;49.48
34081;BME280;20358;50.272;19.026;2023-01-28T11:10:25;98909.59;;;-0.84;49.91
34081;BME280;20358;50.272;19.026;2023-01-28T11:13:48;98895.72;;;-0.83;49.41
34081;BME280;20358;50.272;19.026;2023-01-28T11:16:57;98897.63;;;-0.91;50.00
34081;BME280;20358;50.272;19.026;2023-01-28T11:20:17;98901.03;;;-0.89;50.23
34081;BME280;20358;50.272;19.026;2023-01-28T11:23:29;98894.88;;;-0.83;49.88
34081;BME280;20358;50.272;19.026;2023-01-28T11:26:42;98901.25;;;-1.01;49.89
34081;BME280;20358;50.272;19.026;2023-01-28T11:29:53;98894.53;;;-1.11;50.52
34081;BME280;20358;50.272;19.026;2023-01-28T11:33:13;98888.59;;;-1.14;51.21
34081;BME280;20358;50.272;19.026;2023-01-28T11:36:27;98888.44;;;-1.08;51.19
34081;BME280;20358;50.272;19.026;2023-01-28T11:39:33;98892.56;;;-0.97;50.90
34081;BME280;20358;50.272;19.026;2023-01-28T11:42:40;98897.13;;;-1.09;51.11
34081;BME280;20358;50.272;19.026;2023-01-28T11:45:55;98892.91;;;-1.15;51.23
34081;BME280;20358;50.272;19.026;2023-01-28T11:49:26;98895.50;;;-1.16;51.24
34081;BME280;20358;50.272;19.026;2023-01-28T11:53:33;98881.72;;;-1.18;51.67
34081;BME280;20358;50.272;19.026;2023-01-28T11:57:20;98886.72;;;-1.08;51.68
34081;BME280;20358;50.272;19.026;2023-01-28T12:00:51;98878.72;;;-0.96;51.11
34081;BME280;20358;50.272;19.026;2023-01-28T12:04:24;98882.56;;;-1.16;51.39
34081;BME280;20358;50.272;19.026;2023-01-28T12:07:55;98882.28;;;-1.03;51.63
34081;BME280;20358;50.272;19.026;2023-01-28T12:11:29;98882.28;;;-1.01;51.58
34081;BME280;20358;50.272;19.026;2023-01-28T12:15:20;98882.50;;;-1.12;51.93
34081;BME280;20358;50.272;19.026;2023-01-28T12:19:04;98839.59;;;-1.28;51.96
34081;BME280;20358;50.272;19.026;2023-01-28T12:26:29;98866.63;;;-0.97;51.43
34081;BME280;20358;50.272;19.026;2023-01-28T12:29:51;98876.03;;;-0.91;51.34
34081;BME280;20358;50.272;19.026;2023-01-28T12:33:44;98873.56;;;-0.97;51.44
34081;BME280;20358;50.272;19.026;2023-01-28T12:37:24;98876.97;;;-0.95;51.38
34081;BME280;20358;50.272;19.026;2023-01-28T12:41:00;98876.25;;;-1.03;51.62
34081;BME280;20358;50.272;19.026;2023-01-28T12:44:22;98883.25;;;-1.07;51.43
34081;BME280;20358;50.272;19.026;2023-01-28T12:47:38;98891.19;;;-1.16;51.87
34081;BME280;20358;50.272;19.026;2023-01-28T12:50:53;98890.56;;;-1.27;51.99
34081;BME280;20358;50.272;19.026;2023-01-28T12:54:16;98894.03;;;-1.28;52.44
34081;BME280;20358;50.272;19.026;2023-01-28T12:57:29;98888.94;;;-1.34;52.47
34081;BME280;20358;50.272;19.026;2023-01-28T13:00:46;98891.47;;;-1.30;52.62
34081;BME280;20358;50.272;19.026;2023-01-28T13:03:59;98889.75;;;-1.31;52.13
34081;BME280;20358;50.272;19.026;2023-01-28T13:07:16;98887.88;;;-1.24;52.61
34081;BME280;20358;50.272;19.026;2023-01-28T13:10:29;98896.44;;;-1.19;52.21
34081;BME280;20358;50.272;19.026;2023-01-28T13:13:44;98898.84;;;-1.10;52.43
34081;BME280;20358;50.272;19.026;2023-01-28T13:16:53;98897.09;;;-1.08;52.04
34081;BME280;20358;50.272;19.026;2023-01-28T13:20:00;98892.84;;;-1.12;52.37
34081;BME280;20358;50.272;19.026;2023-01-28T13:23:23;98903.94;;;-1.04;52.44
34081;BME280;20358;50.272;19.026;2023-01-28T13:26:40;98913.28;;;-0.97;52.44
34081;BME280;20358;50.272;19.026;2023-01-28T13:29:48;98900.19;;;-0.89;52.17
34081;BME280;20358;50.272;19.026;2023-01-28T13:33:29;98904.44;;;-0.87;52.16
34081;BME280;20358;50.272;19.026;2023-01-28T13:36:52;98906.19;;;-0.87;52.29
34081;BME280;20358;50.272;19.026;2023-01-28T13:40:06;98884.13;;;-1.06;51.75
34081;BME280;20358;50.272;19.026;2023-01-28T13:43:35;98913.34;;;-1.00;52.23
34081;BME280;20358;50.272;19.026;2023-01-28T13:46:43;98920.31;;;-1.02;52.35
34081;BME280;20358;50.272;19.026;2023-01-28T13:49:55;98922.13;;;-1.07;52.39
34081;BME280;20358;50.272;19.026;2023-01-28T13:53:18;98918.59;;;-1.03;52.84
34081;BME280;20358;50.272;19.026;2023-01-28T13:56:40;98919.28;;;-0.93;52.58
34081;BME280;20358;50.272;19.026;2023-01-28T14:00:08;98911.41;;;-0.89;52.67
34081;BME280;20358;50.272;19.026;2023-01-28T14:03:57;98915.63;;;-0.83;52.56
34081;BME280;20358;50.272;19.026;2023-01-28T14:08:21;98922.41;;;-0.76;52.43
34081;BME280;20358;50.272;19.026;2023-01-28T14:12:19;98925.84;;;-0.76;52.47
34081;BME280;20358;50.272;19.026;2023-01-28T14:15:56;98931.13;;;-0.82;52.21
34081;BME280;20358;50.272;19.026;2023-01-28T14:19:28;98918.47;;;-0.97;52.44
34081;BME280;20358;50.272;19.026;2023-01-28T14:22:40;98916.81;;;-1.01;52.45
34081;BME280;20358;50.272;19.026;2023-01-28T14:26:05;98925.41;;;-0.97;52.94
34081;BME280;20358;50.272;19.026;2023-01-28T14:29:34;98928.84;;;-0.97;52.52
34081;BME280;20358;50.272;19.026;2023-01-28T14:32:50;98912.53;;;-1.03;52.48
34081;BME280;20358;50.272;19.026;2023-01-28T14:35:58;98928.19;;;-1.06;52.41
34081;BME280;20358;50.272;19.026;2023-01-28T14:39:04;98922.19;;;-1.10;53.02
34081;BME280;20358;50.272;19.026;2023-01-28T14:42:22;98924.00;;;-1.15;52.67
34081;BME280;20358;50.272;19.026;2023-01-28T14:45:47;98934.47;;;-1.21;53.02
34081;BME280;20358;50.272;19.026;2023-01-28T14:49:25;98935.38;;;-1.23;53.02
34081;BME280;20358;50.272;19.026;2023-01-28T14:53:08;98937.84;;;-1.16;53.36
34081;BME280;20358;50.272;19.026;2023-01-28T14:56:39;98939.47;;;-1.09;53.29
34081;BME280;20358;50.272;19.026;2023-01-28T14:59:59;98948.78;;;-1.00;53.21
34081;BME280;20358;50.272;19.026;2023-01-28T15:03:16;98955.97;;;-1.16;52.97
34081;BME280;20358;50.272;19.026;2023-01-28T15:06:33;98943.03;;;-1.16;53.00
34081;BME280;20358;50.272;19.026;2023-01-28T15:09:40;98955.13;;;-1.15;53.17
34081;BME280;20358;50.272;19.026;2023-01-28T15:12:51;98962.84;;;-1.13;53.12
34081;BME280;20358;50.272;19.026;2023-01-28T15:16:04;98956.03;;;-1.19;53.34
34081;BME280;20358;50.272;19.026;2023-01-28T15:19:10;98957.84;;;-1.22;53.82
34081;BME280;20358;50.272;19.026;2023-01-28T15:22:20;98966.53;;;-1.27;53.70
34081;BME280;20358;50.272;19.026;2023-01-28T15:25:31;98961.44;;;-1.30;54.31
34081;BME280;20358;50.272;19.026;2023-01-28T15:28:39;98964.06;;;-1.34;54.71
34081;BME280;20358;50.272;19.026;2023-01-28T15:31:51;98959.88;;;-1.41;55.07
34081;BME280;20358;50.272;19.026;2023-01-28T15:34:59;98972.97;;;-1.49;55.27
34081;BME280;20358;50.272;19.026;2023-01-28T15:38:05;98970.59;;;-1.62;56.22
34081;BME280;20358;50.272;19.026;2023-01-28T15:41:11;98972.31;;;-1.61;56.31
34081;BME280;20358;50.272;19.026;2023-01-28T15:44:24;98973.16;;;-1.61;55.88
34081;BME280;20358;50.272;19.026;2023-01-28T15:47:37;98988.75;;;-1.65;56.46
34081;BME280;20358;50.272;19.026;2023-01-28T15:50:44;98995.66;;;-1.64;56.48
34081;BME280;20358;50.272;19.026;2023-01-28T15:53:54;98994.88;;;-1.71;56.61
34081;BME280;20358;50.272;19.026;2023-01-28T15:57:09;99004.41;;;-1.71;56.60
34081;BME280;20358;50.272;19.026;2023-01-28T16:00:24;98998.53;;;-1.82;57.07
34081;BME280;20358;50.272;19.026;2023-01-28T16:03:36;98997.75;;;-1.87;57.01
34081;BME280;20358;50.272;19.026;2023-01-28T16:06:46;99001.16;;;-1.85;56.69
34081;BME280;20358;50.272;19.026;2023-01-28T16:09:53;99009.78;;;-1.86;56.98
34081;BME280;20358;50.272;19.026;2023-01-28T16:13:05;99007.19;;;-1.85;56.76
34081;BME280;20358;50.272;19.026;2023-01-28T16:16:27;99001.16;;;-1.85;56.82
34081;BME280;20358;50.272;19.026;2023-01-28T16:19:42;98997.69;;;-1.84;57.66
34081;BME280;20358;50.272;19.026;2023-01-28T16:22:54;99001.94;;;-1.80;57.32
34081;BME280;20358;50.272;19.026;2023-01-28T16:26:05;99007.94;;;-1.78;57.29
34081;BME280;20358;50.272;19.026;2023-01-28T16:29:25;99007.03;;;-1.74;57.40
34081;BME280;20358;50.272;19.026;2023-01-28T16:32:35;99004.50;;;-1.77;57.45
34081;BME280;20358;50.272;19.026;2023-01-28T16:35:46;99008.81;;;-1.78;57.72
34081;BME280;20358;50.272;19.026;2023-01-28T16:39:10;99009.72;;;-1.80;57.99
34081;BME280;20358;50.272;19.026;2023-01-28T16:42:16;99010.66;;;-1.84;58.32
34081;BME280;20358;50.272;19.026;2023-01-28T16:45:24;99018.41;;;-1.84;59.24
34081;BME280;20358;50.272;19.026;2023-01-28T16:48:30;99008.91;;;-1.85;59.48
34081;BME280;20358;50.272;19.026;2023-01-28T16:51:41;99026.19;;;-1.84;59.60
34081;BME280;20358;50.272;19.026;2023-01-28T16:54:47;99011.50;;;-1.84;59.85
34081;BME280;20358;50.272;19.026;2023-01-28T16:57:56;99006.25;;;-1.79;60.36
34081;BME280;20358;50.272;19.026;2023-01-28T17:01:01;99011.50;;;-1.85;60.37
34081;BME280;20358;50.272;19.026;2023-01-28T17:04:08;99022.03;;;-1.98;60.44
34081;BME280;20358;50.272;19.026;2023-01-28T17:07:17;99017.53;;;-1.85;60.96
34081;BME280;20358;50.272;19.026;2023-01-28T17:10:24;99008.03;;;-1.81;60.48